createdAt,value
2019-05-11T00:02:00.490Z,80.70
2019-05-11T00:04:29.480Z,81.11
2019-05-11T00:06:58.407Z,81.11
2019-05-11T00:09:27.367Z,81.45
2019-05-11T00:11:56.351Z,80.59
2019-05-11T00:14:26.630Z,80.70
2019-05-11T00:16:55.247Z,80.88
2019-05-11T00:19:24.046Z,80.48
2019-05-11T00:21:52.968Z,80.37
2019-05-11T00:24:22.638Z,80.13
2019-05-11T00:26:51.561Z,79.43
2019-05-11T00:29:20.493Z,79.28
2019-05-11T00:31:49.176Z,79.51
2019-05-11T00:34:17.885Z,80.04
2019-05-11T00:36:46.585Z,80.42
2019-05-11T00:39:15.271Z,80.94
2019-05-11T00:41:44.269Z,80.47
2019-05-11T00:44:13.091Z,80.14
2019-05-11T00:46:41.854Z,80.74
2019-05-11T00:49:10.981Z,81.74
2019-05-11T00:51:39.665Z,82.12
2019-05-11T00:54:08.354Z,81.99
2019-05-11T00:56:37.036Z,81.93
2019-05-11T00:59:20.692Z,82.20
2019-05-11T01:01:36.223Z,81.99
2019-05-11T01:04:05.057Z,81.33
2019-05-11T01:06:33.738Z,81.21
2019-05-11T01:09:02.595Z,81.26
2019-05-11T01:11:31.523Z,81.71
2019-05-11T01:14:00.219Z,81.84
2019-05-11T01:16:28.921Z,81.68
2019-05-11T01:18:57.614Z,81.87
2019-05-11T01:21:26.365Z,81.96
2019-05-11T01:23:55.831Z,82.22
2019-05-11T01:26:24.606Z,82.14
2019-05-11T01:28:53.547Z,82.06
2019-05-11T01:31:22.259Z,82.16
2019-05-11T01:33:52.549Z,81.95
2019-05-11T01:36:21.230Z,81.87
2019-05-11T01:38:50.182Z,81.64
2019-05-11T01:41:18.874Z,81.75
2019-05-11T01:43:47.596Z,82.18
2019-05-11T01:46:16.531Z,81.68
2019-05-11T01:48:45.577Z,81.13
2019-05-11T01:51:14.514Z,81.08
2019-05-11T01:53:43.707Z,81.55
2019-05-11T01:56:12.420Z,81.40
2019-05-11T01:58:41.099Z,81.40
2019-05-11T02:01:10.281Z,81.66
2019-05-11T02:03:39.803Z,81.80
2019-05-11T02:06:08.736Z,81.76
2019-05-11T02:08:37.447Z,81.49
2019-05-11T02:11:15.567Z,81.46
2019-05-11T02:13:36.802Z,81.23
2019-05-11T02:16:05.811Z,81.23
2019-05-11T02:18:34.835Z,81.17
2019-05-11T02:21:04.018Z,81.40
2019-05-11T02:23:32.946Z,81.21
2019-05-11T02:26:01.997Z,81.19
2019-05-11T02:28:30.952Z,81.30
2019-05-11T02:30:59.896Z,81.68
2019-05-11T02:33:28.629Z,81.92
2019-05-11T02:35:57.574Z,82.28
2019-05-11T02:38:26.260Z,81.81
2019-05-11T02:40:55.244Z,81.98
2019-05-11T02:43:24.398Z,81.76
2019-05-11T02:45:53.421Z,82.29
2019-05-11T02:48:22.430Z,82.30
2019-05-11T02:50:52.210Z,82.04
2019-05-11T02:53:21.939Z,81.53
2019-05-11T02:55:51.796Z,81.70
2019-05-11T02:58:20.543Z,81.65
2019-05-11T03:00:49.418Z,81.43
2019-05-11T03:03:18.369Z,81.44
2019-05-11T03:05:47.306Z,81.72
2019-05-11T03:08:16.227Z,81.59
2019-05-11T03:10:45.178Z,81.17
2019-05-11T03:13:16.814Z,80.77
2019-05-11T03:15:45.981Z,80.77
2019-05-11T03:18:14.919Z,81.20
2019-05-11T03:20:43.601Z,81.20
2019-05-11T03:23:12.747Z,81.11
2019-05-11T03:25:41.712Z,81.38
2019-05-11T03:28:10.639Z,81.39
2019-05-11T03:30:39.589Z,81.30
2019-05-11T03:33:08.343Z,81.68
2019-05-11T03:35:37.056Z,82.04
2019-05-11T03:38:05.827Z,82.22
2019-05-11T03:40:34.717Z,82.26
2019-05-11T03:43:03.430Z,82.18
2019-05-11T03:45:33.672Z,82.65
2019-05-11T03:48:02.601Z,83.25
2019-05-11T03:50:31.310Z,83.50
2019-05-11T03:53:00.253Z,83.86
2019-05-11T03:55:28.951Z,83.94
2019-05-11T03:57:57.613Z,83.88
2019-05-11T04:00:26.477Z,83.78
2019-05-11T04:02:55.448Z,83.33
2019-05-11T04:05:24.629Z,83.09
2019-05-11T04:07:53.317Z,83.79
2019-05-11T04:10:25.104Z,84.07
2019-05-11T04:12:54.650Z,84.27
2019-05-11T04:15:23.391Z,84.27
2019-05-11T04:17:52.308Z,84.12
2019-05-11T04:20:20.997Z,84.33
2019-05-11T04:22:49.932Z,84.10
2019-05-11T04:25:18.620Z,84.10
2019-05-11T04:27:47.566Z,83.92
2019-05-11T04:30:16.874Z,83.92
2019-05-11T04:32:45.810Z,83.86
2019-05-11T04:35:16.943Z,83.70
2019-05-11T04:37:46.186Z,83.57
2019-05-11T04:40:15.250Z,84.05
2019-05-11T04:42:55.065Z,83.84
2019-05-11T04:45:14.785Z,83.62
2019-05-11T04:47:43.470Z,83.84
2019-05-11T04:50:12.833Z,84.61
2019-05-11T04:52:41.575Z,84.61
2019-05-11T04:55:10.617Z,84.52
2019-05-11T04:57:39.554Z,84.25
2019-05-11T05:00:08.938Z,84.00
2019-05-11T05:02:37.867Z,83.88
2019-05-11T05:05:06.867Z,83.99
2019-05-11T05:07:35.541Z,83.89
2019-05-11T05:10:04.338Z,83.58
2019-05-11T05:12:33.277Z,83.79
2019-05-11T05:15:02.442Z,83.78
2019-05-11T05:17:31.140Z,83.70
2019-05-11T05:20:00.372Z,83.84
2019-05-11T05:22:29.035Z,84.25
2019-05-11T05:24:57.713Z,84.07
2019-05-11T05:27:26.431Z,84.01
2019-05-11T05:29:55.085Z,84.18
2019-05-11T05:32:24.269Z,83.70
2019-05-11T05:34:53.453Z,84.12
2019-05-11T05:37:22.623Z,83.79
2019-05-11T05:39:51.571Z,83.61
2019-05-11T05:42:20.518Z,83.59
2019-05-11T05:44:49.748Z,84.08
2019-05-11T05:47:18.713Z,84.12
2019-05-11T05:49:47.607Z,83.74
2019-05-11T05:52:16.779Z,84.14
2019-05-11T05:54:45.955Z,83.37
2019-05-11T05:57:14.655Z,83.54
2019-05-11T05:59:43.847Z,82.87
2019-05-11T06:02:15.601Z,82.55
2019-05-11T06:04:44.807Z,82.32
2019-05-11T06:07:13.490Z,82.39
2019-05-11T06:09:42.184Z,83.13
2019-05-11T06:12:11.156Z,83.53
2019-05-11T06:14:39.927Z,83.97
2019-05-11T06:17:08.587Z,83.95
2019-05-11T06:19:38.057Z,84.29
2019-05-11T06:22:07.164Z,84.33
2019-05-11T06:24:36.347Z,83.46
2019-05-11T06:27:07.339Z,83.80
2019-05-11T06:29:36.131Z,83.22
2019-05-11T06:32:05.084Z,83.44
2019-05-11T06:34:34.022Z,83.52
2019-05-11T06:37:05.328Z,83.67
2019-05-11T06:39:34.238Z,82.31
2019-05-11T06:42:02.986Z,81.86
2019-05-11T06:44:31.684Z,81.64
2019-05-11T06:47:00.439Z,81.13
2019-05-11T06:49:29.369Z,81.91
2019-05-11T06:51:58.061Z,81.73
2019-05-11T06:54:27.012Z,81.25
2019-05-11T06:56:55.733Z,82.54
2019-05-11T06:59:27.584Z,82.21
2019-05-11T07:01:56.555Z,82.70
2019-05-11T07:04:25.251Z,83.18
2019-05-11T07:06:54.475Z,82.36
2019-05-11T07:09:23.678Z,81.19
2019-05-11T07:11:52.625Z,81.03
2019-05-11T07:14:21.740Z,80.91
2019-05-11T07:16:50.506Z,80.18
2019-05-11T07:19:19.419Z,80.73
2019-05-11T07:21:48.610Z,80.86
2019-05-11T07:24:17.363Z,81.28
2019-05-11T07:26:46.305Z,82.63
2019-05-11T07:29:16.657Z,81.95
2019-05-11T07:31:45.835Z,81.75
2019-05-11T07:34:14.524Z,82.00
2019-05-11T07:36:43.258Z,80.78
2019-05-11T07:39:11.948Z,81.34
2019-05-11T07:41:40.665Z,80.58
2019-05-11T07:44:10.171Z,80.29
2019-05-11T07:46:39.166Z,79.24
2019-05-11T07:49:11.130Z,79.66
2019-05-11T07:51:39.846Z,79.96
2019-05-11T07:54:08.679Z,79.98
2019-05-11T07:56:38.992Z,80.66
2019-05-11T07:59:08.136Z,80.84
2019-05-11T08:01:38.664Z,79.97
2019-05-11T08:04:07.928Z,79.86
2019-05-11T08:06:38.931Z,80.16
2019-05-11T08:09:08.384Z,80.07
2019-05-11T08:11:38.923Z,80.23
2019-05-11T08:14:07.941Z,79.82
2019-05-11T08:16:39.072Z,81.17
2019-05-11T08:19:10.625Z,81.16
2019-05-11T08:21:38.871Z,80.76
2019-05-11T08:24:09.133Z,80.56
2019-05-11T08:26:38.665Z,80.28
2019-05-11T08:29:08.220Z,80.45
2019-05-11T08:31:38.412Z,80.18
2019-05-11T08:34:08.838Z,80.16
2019-05-11T08:36:38.054Z,81.57
2019-05-11T08:39:08.038Z,82.75
2019-05-11T08:41:38.499Z,81.09
2019-05-11T08:44:08.954Z,81.30
2019-05-11T08:46:38.537Z,79.73
2019-05-11T08:49:08.616Z,79.70
2019-05-11T08:51:38.646Z,78.81
2019-05-11T08:54:09.016Z,78.66
2019-05-11T08:56:38.386Z,79.64
2019-05-11T08:59:08.117Z,79.06
2019-05-11T09:01:39.280Z,79.75
2019-05-11T09:04:08.965Z,78.73
2019-05-11T09:06:37.886Z,78.94
2019-05-11T09:09:08.939Z,79.67
2019-05-11T09:11:38.914Z,79.62
2019-05-11T09:14:08.491Z,79.55
2019-05-11T09:16:38.470Z,79.53
2019-05-11T09:19:08.735Z,79.76
2019-05-11T09:21:38.424Z,79.04
2019-05-11T09:24:08.448Z,78.88
2019-05-11T09:26:38.816Z,79.70
2019-05-11T09:29:08.697Z,80.71
2019-05-11T09:31:38.187Z,78.49
2019-05-11T09:34:08.967Z,78.14
2019-05-11T09:36:38.867Z,77.87
2019-05-11T09:39:08.761Z,77.45
2019-05-11T09:41:38.335Z,76.65
2019-05-11T09:44:08.996Z,76.23
2019-05-11T09:46:38.420Z,76.23
2019-05-11T09:49:08.157Z,77.76
2019-05-11T09:51:38.117Z,77.76
2019-05-11T09:54:07.928Z,76.49
2019-05-11T09:56:38.146Z,76.65
2019-05-11T09:59:08.843Z,73.32
2019-05-11T10:01:37.992Z,73.32
2019-05-11T10:04:09.016Z,74.50
2019-05-11T10:06:38.954Z,73.90
2019-05-11T10:09:08.279Z,73.71
2019-05-11T10:11:39.702Z,74.03
2019-05-11T10:14:08.364Z,73.49
2019-05-11T10:16:38.702Z,74.39
2019-05-11T10:19:08.451Z,73.61
2019-05-11T10:21:38.442Z,74.21
2019-05-11T10:24:08.603Z,73.16
2019-05-11T10:26:38.478Z,74.38
2019-05-11T10:29:07.977Z,74.33
2019-05-11T10:31:38.591Z,75.01
2019-05-11T10:34:08.651Z,73.14
2019-05-11T10:36:41.418Z,72.53
2019-05-11T10:39:10.591Z,73.32
2019-05-11T10:41:39.549Z,73.22
2019-05-11T10:44:08.440Z,73.76
2019-05-11T10:46:38.098Z,75.46
2019-05-11T10:49:08.044Z,74.09
2019-05-11T10:51:38.542Z,74.28
2019-05-11T10:54:08.885Z,73.63
2019-05-11T10:56:38.884Z,74.54
2019-05-11T10:59:08.099Z,73.61
2019-05-11T11:01:38.103Z,73.47
2019-05-11T11:04:09.037Z,71.95
2019-05-11T11:06:38.627Z,72.55
2019-05-11T11:09:09.135Z,72.98
2019-05-11T11:11:38.432Z,74.52
2019-05-11T11:14:08.758Z,74.10
2019-05-11T11:16:42.437Z,74.94
2019-05-11T11:19:08.346Z,73.09
2019-05-11T11:21:38.357Z,75.07
2019-05-11T11:24:07.732Z,74.75
2019-05-11T11:26:37.981Z,74.75
2019-05-11T11:29:08.568Z,75.81
2019-05-11T11:31:38.145Z,74.49
2019-05-11T11:34:08.225Z,74.49
2019-05-11T11:36:37.665Z,74.69
2019-05-11T11:39:08.348Z,75.41
2019-05-11T11:41:37.990Z,75.18
2019-05-11T11:44:07.855Z,76.02
2019-05-11T11:46:50.960Z,76.66
2019-05-11T11:49:08.328Z,76.48
2019-05-11T11:51:37.857Z,76.61
2019-05-11T11:54:08.791Z,76.61
2019-05-11T11:56:38.107Z,78.32
2019-05-11T11:59:08.553Z,78.33
2019-05-11T12:01:38.402Z,77.93
2019-05-11T12:04:08.259Z,78.26
2019-05-11T12:06:38.604Z,76.96
2019-05-11T12:09:08.982Z,78.06
2019-05-11T12:11:38.293Z,77.64
2019-05-11T12:14:08.703Z,78.88
2019-05-11T12:16:38.882Z,78.88
2019-05-11T12:19:08.592Z,78.50
2019-05-11T12:21:37.947Z,78.50
2019-05-11T12:24:08.187Z,78.80
2019-05-11T12:26:38.859Z,78.46
2019-05-11T12:29:08.263Z,79.17
2019-05-11T12:31:38.047Z,79.23
2019-05-11T12:34:08.812Z,81.02
2019-05-11T12:36:38.747Z,79.70
2019-05-11T12:39:08.568Z,80.46
2019-05-11T12:41:38.720Z,80.54
2019-05-11T12:44:08.376Z,80.63
2019-05-11T12:46:39.541Z,80.67
2019-05-11T12:49:08.675Z,80.89
2019-05-11T12:51:38.364Z,82.22
2019-05-11T12:54:08.244Z,81.95
2019-05-11T12:56:38.289Z,82.48
2019-05-11T12:59:08.279Z,81.11
2019-05-11T13:01:38.119Z,81.46
2019-05-11T13:04:09.074Z,81.46
2019-05-11T13:06:38.502Z,82.04
2019-05-11T13:09:08.378Z,81.61
2019-05-11T13:11:37.994Z,81.61
2019-05-11T13:14:08.012Z,82.01
2019-05-11T13:16:37.997Z,82.01
2019-05-11T13:19:08.335Z,82.69
2019-05-11T13:21:38.215Z,83.07
2019-05-11T13:24:08.350Z,83.07
2019-05-11T13:26:38.220Z,81.70
2019-05-11T13:29:07.814Z,81.70
2019-05-11T13:31:38.382Z,81.64
2019-05-11T13:34:08.369Z,81.04
2019-05-11T13:36:38.343Z,81.40
2019-05-11T13:39:08.950Z,81.50
2019-05-11T13:41:40.639Z,81.50
2019-05-11T13:44:09.320Z,81.10
2019-05-11T13:46:38.835Z,80.46
2019-05-11T13:49:08.542Z,80.72
2019-05-11T13:51:38.830Z,81.24
2019-05-11T13:54:08.134Z,80.65
2019-05-11T13:56:37.936Z,80.65
2019-05-11T13:59:10.814Z,80.84
2019-05-11T14:01:40.051Z,80.06
2019-05-11T14:04:08.789Z,79.59
2019-05-11T14:06:37.897Z,79.89
2019-05-11T14:09:08.670Z,79.89
2019-05-11T14:11:39.023Z,79.93
2019-05-11T14:14:08.246Z,80.26
2019-05-11T14:16:37.937Z,80.26
2019-05-11T14:19:08.613Z,80.36
2019-05-11T14:21:38.483Z,80.43
2019-05-11T14:24:07.968Z,79.52
2019-05-11T14:26:38.576Z,79.72
2019-05-11T14:29:08.456Z,79.74
2019-05-11T14:31:38.737Z,78.71
2019-05-11T14:34:08.828Z,79.56
2019-05-11T14:36:38.718Z,77.15
2019-05-11T14:39:08.652Z,76.56
2019-05-11T14:41:38.323Z,76.64
2019-05-11T14:44:08.801Z,74.29
2019-05-11T14:46:38.432Z,76.61
2019-05-11T14:49:07.964Z,77.02
2019-05-11T14:51:39.163Z,75.64
2019-05-11T14:54:08.382Z,76.77
2019-05-11T14:56:38.223Z,74.88
2019-05-11T14:59:09.064Z,75.48
2019-05-11T15:01:38.381Z,76.35
2019-05-11T15:04:09.107Z,74.96
2019-05-11T15:06:38.652Z,74.20
2019-05-11T15:09:08.533Z,73.82
2019-05-11T15:11:38.822Z,73.82
2019-05-11T15:14:08.281Z,72.78
2019-05-11T15:16:38.395Z,72.78
2019-05-11T15:19:08.006Z,74.02
2019-05-11T15:21:38.721Z,72.81
2019-05-11T15:24:09.060Z,72.50
2019-05-11T15:26:38.315Z,72.50
2019-05-11T15:29:08.206Z,73.32
2019-05-11T15:31:38.036Z,72.58
2019-05-11T15:34:08.476Z,72.24
2019-05-11T15:36:38.683Z,73.16
2019-05-11T15:39:08.081Z,71.61
2019-05-11T15:41:38.878Z,73.67
2019-05-11T15:44:11.404Z,72.94
2019-05-11T15:46:39.034Z,72.30
2019-05-11T15:49:08.792Z,72.53
2019-05-11T15:51:41.045Z,72.80
2019-05-11T15:54:08.494Z,72.61
2019-05-11T15:56:38.488Z,73.08
2019-05-11T15:59:08.616Z,72.44
2019-05-11T16:01:40.941Z,72.08
2019-05-11T16:04:09.154Z,71.76
2019-05-11T16:06:40.210Z,72.10
2019-05-11T16:09:09.252Z,71.13
2019-05-11T16:11:38.784Z,72.02
2019-05-11T16:14:08.812Z,72.39
2019-05-11T16:16:39.000Z,71.88
2019-05-11T16:19:13.977Z,70.76
2019-05-11T16:21:38.628Z,71.49
2019-05-11T16:24:09.516Z,70.97
2019-05-11T16:26:38.472Z,70.80
2019-05-11T16:29:08.535Z,71.87
2019-05-11T16:31:39.257Z,70.95
2019-05-11T16:34:08.214Z,71.00
2019-05-11T16:36:38.884Z,71.33
2019-05-11T16:39:10.523Z,71.35
2019-05-11T16:41:39.576Z,70.95
2019-05-11T16:44:08.548Z,71.86
2019-05-11T16:46:38.970Z,70.73
2019-05-11T16:49:09.467Z,71.58
2019-05-11T16:51:39.003Z,69.16
2019-05-11T16:54:07.901Z,69.18
2019-05-11T16:56:38.335Z,69.28
2019-05-11T16:59:08.280Z,69.64
2019-05-11T17:01:38.047Z,69.47
2019-05-11T17:04:06.940Z,68.75
2019-05-11T17:06:38.311Z,67.87
2019-05-11T17:09:08.956Z,66.79
2019-05-11T17:11:38.431Z,65.42
2019-05-11T17:14:08.299Z,65.27
2019-05-11T17:16:38.512Z,64.77
2019-05-11T17:19:08.090Z,63.69
2019-05-11T17:21:38.026Z,61.88
2019-05-11T17:24:07.123Z,61.95
2019-05-11T17:26:38.356Z,61.13
2019-05-11T17:29:06.470Z,61.05
2019-05-11T17:31:37.860Z,61.94
2019-05-11T17:34:08.771Z,61.31
2019-05-11T17:36:36.852Z,60.97
2019-05-11T17:39:07.729Z,61.94
2019-05-11T17:41:38.648Z,62.16
2019-05-11T17:44:08.181Z,59.29
2019-05-11T17:46:38.408Z,61.62
2019-05-11T17:49:08.043Z,60.86
2019-05-11T17:51:37.938Z,60.88
2019-05-11T17:54:08.025Z,59.99
2019-05-11T17:56:38.807Z,60.22
2019-05-11T17:59:08.223Z,60.47
2019-05-11T18:01:37.149Z,59.13
2019-05-11T18:04:08.060Z,59.91
2019-05-11T18:06:38.449Z,58.45
2019-05-11T18:09:08.383Z,57.73
2019-05-11T18:11:38.162Z,57.17
2019-05-11T18:14:08.431Z,56.67
2019-05-11T18:16:37.420Z,55.81
2019-05-11T18:19:08.480Z,55.73
2019-05-11T18:21:38.671Z,55.77
2019-05-11T18:24:09.130Z,54.94
2019-05-11T18:26:38.439Z,53.74
2019-05-11T18:29:07.310Z,54.18
2019-05-11T18:31:38.383Z,53.56
2019-05-11T18:34:08.844Z,54.41
2019-05-11T18:36:38.234Z,54.44
2019-05-11T18:39:08.347Z,54.59
2019-05-11T18:41:39.150Z,55.71
2019-05-11T18:44:11.073Z,56.52
2019-05-11T18:46:40.113Z,56.52
2019-05-11T18:49:08.795Z,57.22
2019-05-11T18:51:38.029Z,57.69
2019-05-11T18:54:09.128Z,59.42
2019-05-11T18:56:38.289Z,61.22
2019-05-11T18:59:08.873Z,61.81
2019-05-11T19:01:38.145Z,63.33
2019-05-11T19:04:07.851Z,64.21
2019-05-11T19:06:37.834Z,64.21
2019-05-11T19:09:09.513Z,64.68
2019-05-11T19:11:38.581Z,65.00
2019-05-11T19:14:08.754Z,65.44
2019-05-11T19:16:39.033Z,65.86
2019-05-11T19:19:08.360Z,66.25
2019-05-11T19:21:37.143Z,66.71
2019-05-11T19:24:09.050Z,66.86
2019-05-11T19:26:36.459Z,67.37
2019-05-11T19:29:05.371Z,67.59
2019-05-11T19:31:34.335Z,67.80
2019-05-11T19:34:03.290Z,68.09
2019-05-11T19:36:31.970Z,68.09
2019-05-11T19:39:00.730Z,68.02
2019-05-11T19:41:29.704Z,68.21
2019-05-11T19:43:58.423Z,68.66
2019-05-11T19:46:28.074Z,68.41
2019-05-11T19:48:58.013Z,68.37
2019-05-11T19:51:29.124Z,68.65
2019-05-11T19:53:57.665Z,69.03
2019-05-11T19:56:28.752Z,69.28
2019-05-11T19:58:57.944Z,69.57
2019-05-11T20:01:27.872Z,69.89
2019-05-11T20:03:57.185Z,69.63
2019-05-11T20:06:28.080Z,70.18
2019-05-11T20:08:58.085Z,70.14
2019-05-11T20:11:27.915Z,70.26
2019-05-11T20:13:58.789Z,70.33
2019-05-11T20:16:27.438Z,70.13
2019-05-11T20:18:57.840Z,70.40
2019-05-11T20:21:28.810Z,70.58
2019-05-11T20:23:57.870Z,70.44
2019-05-11T20:26:28.552Z,70.71
2019-05-11T20:28:58.781Z,70.82
2019-05-11T20:31:27.817Z,70.76
2019-05-11T20:33:56.540Z,71.03
2019-05-11T20:36:25.212Z,71.07
2019-05-11T20:38:54.162Z,71.21
2019-05-11T20:41:22.872Z,71.58
2019-05-11T20:43:51.878Z,71.80
2019-05-11T20:46:20.657Z,71.87
2019-05-11T20:48:49.613Z,72.20
2019-05-11T20:51:32.837Z,72.34
2019-05-11T20:53:49.008Z,72.27
2019-05-11T20:56:17.988Z,72.42
2019-05-11T20:58:59.833Z,72.28
2019-05-11T21:01:29.071Z,72.69
2019-05-11T21:03:58.659Z,72.71
2019-05-11T21:06:29.397Z,72.55
2019-05-11T21:08:58.604Z,72.68
2019-05-11T21:11:27.390Z,72.96
2019-05-11T21:13:56.339Z,72.89
2019-05-11T21:16:25.031Z,72.79
2019-05-11T21:18:54.231Z,72.89
2019-05-11T21:21:23.167Z,72.95
2019-05-11T21:23:52.119Z,72.73
2019-05-11T21:26:21.124Z,73.10
2019-05-11T21:28:49.820Z,73.14
2019-05-11T21:31:18.841Z,73.28
2019-05-11T21:33:48.026Z,73.37
2019-05-11T21:36:18.050Z,73.40
2019-05-11T21:38:52.657Z,73.60
2019-05-11T21:41:21.420Z,73.69
2019-05-11T21:43:50.744Z,73.87
2019-05-11T21:46:19.548Z,73.98
2019-05-11T21:48:48.293Z,74.32
2019-05-11T21:51:18.167Z,74.47
2019-05-11T21:53:48.719Z,74.58
2019-05-11T21:56:18.750Z,74.96
2019-05-11T21:58:47.618Z,75.05
2019-05-11T22:01:20.082Z,74.96
2019-05-11T22:03:47.929Z,75.04
2019-05-11T22:06:20.150Z,75.43
2019-05-11T22:08:50.856Z,75.38
2019-05-11T22:11:19.591Z,75.37
2019-05-11T22:13:50.078Z,75.54
2019-05-11T22:16:18.826Z,75.66
2019-05-11T22:18:48.502Z,75.54
2019-05-11T22:21:18.781Z,75.68
2019-05-11T22:23:50.597Z,75.59
2019-05-11T22:26:18.140Z,75.77
2019-05-11T22:28:48.199Z,75.78
2019-05-11T22:31:18.201Z,75.96
2019-05-11T22:33:48.058Z,75.89
2019-05-11T22:36:17.331Z,76.08
2019-05-11T22:38:48.132Z,76.26
2019-05-11T22:41:18.093Z,76.25
2019-05-11T22:43:48.588Z,76.30
2019-05-11T22:46:17.809Z,76.47
2019-05-11T22:48:48.895Z,76.34
2019-05-11T22:51:18.372Z,76.32
2019-05-11T22:53:50.202Z,76.49
2019-05-11T22:56:19.935Z,76.78
2019-05-11T22:58:50.012Z,77.03
2019-05-11T23:01:18.690Z,77.01
2019-05-11T23:03:47.945Z,77.07
2019-05-11T23:06:18.127Z,77.25
2019-05-11T23:08:48.311Z,77.31
2019-05-11T23:11:18.023Z,77.37
2019-05-11T23:13:47.893Z,77.32
2019-05-11T23:16:18.026Z,77.17
2019-05-11T23:18:48.117Z,77.34
2019-05-11T23:21:16.906Z,77.39
2019-05-11T23:23:47.855Z,77.38
2019-05-11T23:26:17.806Z,77.50
2019-05-11T23:28:48.715Z,77.56
2019-05-11T23:31:17.892Z,77.47
2019-05-11T23:33:46.823Z,77.34
2019-05-11T23:36:15.512Z,77.30
2019-05-11T23:38:44.191Z,77.45
2019-05-11T23:41:24.063Z,77.47
2019-05-11T23:43:43.811Z,77.63
2019-05-11T23:46:12.755Z,77.58
2019-05-11T23:48:41.451Z,77.91
2019-05-11T23:51:10.453Z,77.93
2019-05-11T23:53:39.398Z,78.18
2019-05-11T23:56:08.406Z,78.07
2019-05-11T23:58:39.084Z,78.21
